Time;durP1;ratioP1;P1;durP2;ratioP2;P2;SDS_P1;SDS_P2;PMS_P1;PMS_P2;Temp;Humidity;BMP_temperature;BMP_pressure;BME280_temperature;BME280_humidity;BME280_pressure;Samples;Min_cycle;Max_cycle;Signal;HPM_P1;HPM_P2
2021/10/18 00:02:17;;;;;;;5.30;3.90;;;9.80;99.90;;;;;;5130101;27;20204;-76
2021/10/18 00:04:44;;;;;;;5.80;4.07;;;9.80;99.90;;;;;;5132666;27;20206;-76
2021/10/18 00:07:11;;;;;;;6.33;3.80;;;9.80;99.90;;;;;;5119850;27;20252;-76
2021/10/18 00:09:39;;;;;;;6.57;4.07;;;9.80;99.90;;;;;;5129736;27;20207;-76
2021/10/18 00:12:06;;;;;;;7.30;4.23;;;9.80;99.90;;;;;;5134198;27;20200;-76
2021/10/18 00:14:34;;;;;;;6.23;3.63;;;9.80;99.90;;;;;;5136339;27;20204;-76
2021/10/18 00:17:01;;;;;;;6.33;3.57;;;9.80;99.90;;;;;;5130221;27;20191;-76
2021/10/18 00:19:28;;;;;;;8.83;4.00;;;9.80;99.90;;;;;;5129304;27;20200;-76
2021/10/18 00:21:54;;;;;;;4.83;3.73;;;9.80;99.90;;;;;;5117879;27;20666;-76
2021/10/18 00:24:21;;;;;;;8.30;3.83;;;9.80;99.90;;;;;;5119644;27;20211;-76
2021/10/18 00:26:50;;;;;;;7.23;3.90;;;9.80;99.90;;;;;;5124753;27;20202;-76
2021/10/18 00:29:16;;;;;;;10.23;4.20;;;9.80;99.90;;;;;;5127949;27;20567;-76
2021/10/18 00:31:43;;;;;;;7.97;3.70;;;9.70;99.90;;;;;;5140028;27;20203;-76
2021/10/18 00:34:10;;;;;;;6.03;3.93;;;9.70;99.90;;;;;;5130925;27;20210;-76
2021/10/18 00:36:37;;;;;;;4.97;3.83;;;9.70;99.90;;;;;;5129582;27;20211;-76
2021/10/18 00:39:05;;;;;;;5.20;3.73;;;9.70;99.90;;;;;;5124093;27;20237;-76
2021/10/18 00:41:32;;;;;;;6.43;3.57;;;9.60;99.90;;;;;;5119314;27;20572;-76
2021/10/18 00:44:00;;;;;;;7.37;3.97;;;9.60;99.90;;;;;;5112183;28;20824;-76
2021/10/18 00:46:27;;;;;;;5.87;3.67;;;9.60;99.90;;;;;;5116628;27;20200;-76
2021/10/18 00:48:55;;;;;;;6.27;4.13;;;9.60;99.90;;;;;;5140354;27;20234;-75
2021/10/18 00:51:23;;;;;;;6.23;3.80;;;9.60;99.90;;;;;;5118056;27;20204;-75
2021/10/18 00:53:52;;;;;;;8.53;3.63;;;9.50;99.90;;;;;;5122240;27;20204;-76
2021/10/18 00:56:20;;;;;;;7.43;3.90;;;9.50;99.90;;;;;;5123594;27;20575;-76
2021/10/18 00:58:48;;;;;;;5.67;3.70;;;9.50;99.90;;;;;;5111572;28;20189;-76
2021/10/18 01:01:17;;;;;;;7.07;3.83;;;9.50;99.90;;;;;;5112131;28;20212;-76
2021/10/18 01:03:44;;;;;;;5.63;3.77;;;9.50;99.90;;;;;;5113621;28;20197;-76
2021/10/18 01:06:11;;;;;;;6.90;3.80;;;9.40;99.90;;;;;;5128988;28;20639;-76
2021/10/18 01:08:39;;;;;;;8.60;4.07;;;9.40;99.90;;;;;;5123600;28;20254;-76
2021/10/18 01:11:06;;;;;;;9.27;4.17;;;9.40;99.90;;;;;;5111276;28;20197;-76
2021/10/18 01:13:34;;;;;;;7.13;3.87;;;9.40;99.90;;;;;;5124607;28;20658;-76
2021/10/18 01:16:01;;;;;;;8.13;4.20;;;9.30;99.90;;;;;;5131365;27;20234;-76
2021/10/18 01:18:30;;;;;;;5.27;4.13;;;9.40;99.90;;;;;;5129412;27;20218;-76
2021/10/18 01:20:58;;;;;;;8.80;3.80;;;9.50;99.90;;;;;;5122393;28;20227;-76
2021/10/18 01:23:25;;;;;;;5.17;4.00;;;9.40;99.90;;;;;;5130147;28;20203;-76
2021/10/18 01:25:52;;;;;;;5.77;3.97;;;9.40;99.90;;;;;;5130205;27;20669;-76
2021/10/18 01:28:19;;;;;;;7.37;4.23;;;9.40;99.90;;;;;;5130640;28;20216;-76
2021/10/18 01:30:47;;;;;;;7.03;4.70;;;9.30;99.90;;;;;;5124441;28;20295;-76
2021/10/18 01:33:13;;;;;;;7.53;3.90;;;9.40;99.90;;;;;;5111754;28;20611;-76
2021/10/18 01:35:40;;;;;;;6.10;3.93;;;9.30;99.90;;;;;;5119184;28;20208;-76
2021/10/18 01:38:09;;;;;;;8.13;4.40;;;9.30;99.90;;;;;;5126525;28;20204;-76
2021/10/18 01:40:36;;;;;;;9.33;4.17;;;9.40;99.90;;;;;;5110915;28;20197;-76
2021/10/18 01:43:03;;;;;;;8.90;4.30;;;9.40;99.90;;;;;;5132612;27;20222;-76
2021/10/18 01:45:29;;;;;;;8.37;4.10;;;9.50;99.90;;;;;;5137844;27;20744;-76
2021/10/18 01:47:56;;;;;;;12.37;4.27;;;9.50;99.90;;;;;;5147719;27;20208;-76
2021/10/18 01:50:25;;;;;;;6.63;4.10;;;9.50;99.90;;;;;;5116225;27;20223;-76
2021/10/18 01:52:53;;;;;;;7.17;4.23;;;9.50;99.90;;;;;;5123186;27;20474;-76
2021/10/18 01:55:22;;;;;;;6.53;4.03;;;9.40;99.90;;;;;;5131586;27;20569;-76
2021/10/18 01:57:51;;;;;;;7.80;3.80;;;9.40;99.90;;;;;;5145125;27;20196;-76
2021/10/18 02:00:18;;;;;;;6.50;3.60;;;9.40;99.90;;;;;;5133100;27;20208;-75
2021/10/18 02:02:46;;;;;;;6.57;4.00;;;9.40;99.90;;;;;;5124451;27;20579;-75
2021/10/18 02:05:13;;;;;;;6.87;3.90;;;9.40;99.90;;;;;;5132608;27;20662;-75
2021/10/18 02:07:42;;;;;;;6.23;4.17;;;9.50;99.90;;;;;;5124914;27;20640;-75
2021/10/18 02:10:10;;;;;;;6.73;4.20;;;9.40;99.90;;;;;;5118035;27;20208;-76
2021/10/18 02:12:38;;;;;;;7.37;3.73;;;9.30;99.90;;;;;;5132735;27;20204;-76
2021/10/18 02:15:06;;;;;;;6.77;3.87;;;9.30;99.90;;;;;;5130940;27;20207;-76
2021/10/18 02:17:34;;;;;;;5.50;3.80;;;9.40;99.90;;;;;;5125249;27;20192;-76
2021/10/18 02:20:01;;;;;;;6.43;3.97;;;9.30;99.90;;;;;;5130976;27;20196;-76
2021/10/18 02:22:28;;;;;;;7.63;4.40;;;9.30;99.90;;;;;;5119247;27;20234;-76
2021/10/18 02:24:56;;;;;;;5.90;3.70;;;9.20;99.90;;;;;;5122585;27;20220;-76
2021/10/18 02:27:22;;;;;;;7.03;4.33;;;9.20;99.90;;;;;;5135853;27;20203;-75
2021/10/18 02:29:51;;;;;;;6.10;4.00;;;9.10;99.90;;;;;;5130242;27;20220;-75
2021/10/18 02:32:18;;;;;;;5.97;4.00;;;9.10;99.90;;;;;;5129515;27;20206;-75
2021/10/18 02:34:44;;;;;;;6.93;4.10;;;9.10;99.90;;;;;;5130919;27;20224;-75
2021/10/18 02:37:11;;;;;;;7.47;4.10;;;9.10;99.90;;;;;;5128814;27;20197;-76
2021/10/18 02:39:38;;;;;;;7.13;4.33;;;9.10;99.90;;;;;;5128767;27;20199;-75
2021/10/18 02:42:05;;;;;;;9.67;4.57;;;8.90;99.90;;;;;;5119871;27;20688;-76
2021/10/18 02:44:32;;;;;;;8.60;4.93;;;8.90;99.90;;;;;;5133124;27;20211;-76
2021/10/18 02:47:00;;;;;;;9.07;5.20;;;9.00;99.90;;;;;;5133206;27;20203;-76
2021/10/18 02:49:27;;;;;;;8.27;4.77;;;8.90;99.90;;;;;;5137627;27;20220;-76
2021/10/18 02:51:54;;;;;;;9.70;5.37;;;8.90;99.90;;;;;;5121129;27;20209;-77
2021/10/18 02:54:21;;;;;;;8.30;5.97;;;8.90;99.90;;;;;;5121540;27;20571;-76
2021/10/18 02:56:47;;;;;;;9.60;5.77;;;8.90;99.90;;;;;;5130406;27;20549;-76
2021/10/18 02:59:14;;;;;;;10.10;5.50;;;8.80;99.90;;;;;;5137358;27;20200;-76
2021/10/18 03:01:41;;;;;;;10.77;5.70;;;8.90;99.90;;;;;;5152198;27;20195;-76
2021/10/18 03:04:09;;;;;;;9.13;5.10;;;8.80;99.90;;;;;;5134419;27;20207;-76
2021/10/18 03:06:36;;;;;;;14.20;6.27;;;8.70;99.90;;;;;;5151133;27;20567;-76
2021/10/18 03:09:03;;;;;;;10.63;5.17;;;8.70;99.90;;;;;;5135748;27;20605;-70
2021/10/18 03:11:30;;;;;;;9.10;5.30;;;8.60;99.90;;;;;;5143668;27;20193;-70
2021/10/18 03:13:57;;;;;;;7.53;5.13;;;8.60;99.90;;;;;;5126017;27;20192;-70
2021/10/18 03:16:24;;;;;;;9.20;5.50;;;8.60;99.90;;;;;;5131788;27;20208;-70
2021/10/18 03:18:51;;;;;;;7.53;5.23;;;8.60;99.90;;;;;;5130664;27;20197;-70
2021/10/18 03:21:19;;;;;;;8.63;4.63;;;8.50;99.90;;;;;;5131361;27;20222;-70
2021/10/18 03:23:46;;;;;;;8.00;4.53;;;8.60;99.90;;;;;;5122887;27;20783;-70
2021/10/18 03:26:15;;;;;;;5.90;4.20;;;8.50;99.90;;;;;;5119562;27;20320;-70
2021/10/18 03:28:41;;;;;;;6.10;4.13;;;8.50;99.90;;;;;;5136651;27;20220;-70
2021/10/18 03:31:09;;;;;;;9.30;4.97;;;8.40;99.90;;;;;;5152329;27;20207;-70
2021/10/18 03:33:36;;;;;;;6.90;4.40;;;8.20;99.90;;;;;;5131373;27;20197;-70
2021/10/18 03:36:03;;;;;;;7.43;4.93;;;8.10;99.90;;;;;;5136244;27;20544;-70
2021/10/18 03:38:31;;;;;;;10.07;4.87;;;8.10;99.90;;;;;;5137245;27;20197;-70
2021/10/18 03:40:59;;;;;;;9.40;4.40;;;8.10;99.90;;;;;;5120152;27;20197;-70
2021/10/18 03:43:26;;;;;;;7.63;4.73;;;8.10;99.90;;;;;;5118791;27;20201;-70
2021/10/18 03:45:53;;;;;;;10.10;5.07;;;8.20;99.90;;;;;;5124939;27;21203;-70
2021/10/18 03:48:20;;;;;;;9.03;4.70;;;8.20;99.90;;;;;;5131951;27;20557;-71
2021/10/18 03:50:47;;;;;;;7.10;4.50;;;8.10;99.90;;;;;;5130956;27;20283;-70
2021/10/18 03:53:14;;;;;;;11.07;5.50;;;8.20;99.90;;;;;;5118538;27;20574;-70
2021/10/18 03:55:42;;;;;;;10.23;4.97;;;8.20;99.90;;;;;;5129154;27;20209;-70
2021/10/18 03:58:09;;;;;;;7.07;4.97;;;8.20;99.90;;;;;;5126880;27;20229;-69
2021/10/18 04:00:36;;;;;;;11.87;5.80;;;8.30;99.90;;;;;;5117395;27;20219;-69
2021/10/18 04:03:02;;;;;;;10.30;5.40;;;8.20;99.90;;;;;;5124288;27;20207;-69
2021/10/18 04:05:29;;;;;;;9.13;5.00;;;8.20;99.90;;;;;;5123414;27;20208;-69
2021/10/18 04:07:56;;;;;;;11.07;4.90;;;8.10;99.90;;;;;;5118361;27;20209;-70
2021/10/18 04:10:23;;;;;;;10.63;4.70;;;8.10;99.90;;;;;;5132992;27;20804;-69
2021/10/18 04:12:51;;;;;;;11.97;5.03;;;8.10;99.90;;;;;;5132122;27;20200;-69
2021/10/18 04:15:19;;;;;;;12.47;5.40;;;8.10;99.90;;;;;;5123219;27;20415;-69
2021/10/18 04:17:46;;;;;;;7.40;4.90;;;8.30;99.90;;;;;;5123844;27;20279;-69
2021/10/18 04:20:13;;;;;;;8.50;4.77;;;8.20;99.90;;;;;;5129518;27;20201;-69
2021/10/18 04:22:40;;;;;;;6.40;4.70;;;8.30;99.90;;;;;;5126196;27;20199;-69
2021/10/18 04:25:07;;;;;;;10.27;5.17;;;8.20;99.90;;;;;;5124129;27;20219;-70
2021/10/18 04:27:34;;;;;;;11.23;4.77;;;8.20;99.90;;;;;;5121556;27;20211;-69
2021/10/18 04:30:03;;;;;;;7.57;4.57;;;8.20;99.90;;;;;;5121615;27;20223;-69
2021/10/18 04:32:30;;;;;;;8.53;4.77;;;8.20;99.90;;;;;;5127442;27;20204;-69
2021/10/18 04:34:56;;;;;;;8.17;5.20;;;8.40;99.90;;;;;;5123261;27;20204;-69
2021/10/18 04:37:23;;;;;;;8.23;4.87;;;8.40;99.90;;;;;;5123146;27;20839;-70
2021/10/18 04:39:50;;;;;;;8.43;5.07;;;8.40;99.90;;;;;;5123489;27;20651;-70
2021/10/18 04:42:17;;;;;;;8.17;4.43;;;8.40;99.90;;;;;;5118348;27;20212;-70
2021/10/18 04:44:44;;;;;;;8.00;4.50;;;8.40;99.90;;;;;;5130852;27;20214;-70
2021/10/18 04:47:12;;;;;;;6.00;4.80;;;8.50;99.90;;;;;;5118081;27;20196;-70
2021/10/18 04:49:39;;;;;;;8.47;4.93;;;8.50;99.90;;;;;;5127276;27;20245;-70
2021/10/18 04:52:06;;;;;;;7.63;4.13;;;8.50;99.90;;;;;;5116048;27;20589;-70
2021/10/18 04:54:33;;;;;;;4.63;4.03;;;8.50;99.90;;;;;;5121524;27;20288;-69
2021/10/18 04:56:59;;;;;;;6.80;4.60;;;8.40;99.90;;;;;;5121115;27;20196;-70
2021/10/18 04:59:26;;;;;;;9.27;4.30;;;8.50;99.90;;;;;;5121869;27;20224;-69
2021/10/18 05:01:53;;;;;;;6.83;4.20;;;8.40;99.90;;;;;;5117234;27;20197;-69
2021/10/18 05:04:21;;;;;;;6.87;4.53;;;8.40;99.90;;;;;;5123022;27;20544;-69
2021/10/18 05:06:48;;;;;;;9.37;5.57;;;8.50;99.90;;;;;;5125440;27;20658;-69
2021/10/18 05:09:15;;;;;;;8.50;4.60;;;8.60;99.90;;;;;;5118130;27;20216;-69
2021/10/18 05:11:42;;;;;;;7.63;4.30;;;8.60;99.90;;;;;;5122180;27;20196;-69
2021/10/18 05:14:09;;;;;;;9.07;5.10;;;8.70;99.90;;;;;;5120589;27;20232;-69
2021/10/18 05:16:35;;;;;;;9.50;4.90;;;8.60;99.90;;;;;;5116270;28;20673;-69
2021/10/18 05:19:03;;;;;;;9.17;4.43;;;8.60;99.90;;;;;;5127354;27;20192;-69
2021/10/18 05:21:31;;;;;;;7.60;4.70;;;8.70;99.90;;;;;;5135423;27;20199;-69
2021/10/18 05:23:59;;;;;;;10.63;5.03;;;8.60;99.90;;;;;;5127708;27;20642;-69
2021/10/18 05:26:26;;;;;;;10.03;4.57;;;8.60;99.90;;;;;;5144469;27;20188;-69
2021/10/18 05:28:53;;;;;;;9.63;4.60;;;8.60;99.90;;;;;;5129689;27;20219;-69
2021/10/18 05:31:19;;;;;;;9.30;4.47;;;8.70;99.90;;;;;;5145823;27;20672;-69
2021/10/18 05:33:46;;;;;;;9.80;5.23;;;8.70;99.90;;;;;;5138566;27;20212;-69
2021/10/18 05:36:13;;;;;;;9.00;4.87;;;8.80;99.90;;;;;;5136200;27;20219;-68
2021/10/18 05:38:41;;;;;;;7.27;4.60;;;8.80;99.90;;;;;;5128657;27;20579;-68
2021/10/18 05:41:11;;;;;;;6.67;4.73;;;8.80;99.90;;;;;;5135612;27;20199;-69
2021/10/18 05:43:38;;;;;;;7.23;4.70;;;8.80;99.90;;;;;;5135066;27;20212;-69
2021/10/18 05:46:05;;;;;;;6.77;5.30;;;8.80;99.90;;;;;;5134505;27;20369;-69
2021/10/18 05:48:32;;;;;;;10.13;5.00;;;8.90;99.90;;;;;;5134734;27;20208;-69
2021/10/18 05:50:59;;;;;;;5.90;4.27;;;8.90;99.90;;;;;;5132902;27;20235;-69
2021/10/18 05:53:26;;;;;;;6.90;4.40;;;8.90;99.90;;;;;;5122921;27;20603;-69
2021/10/18 05:55:54;;;;;;;14.93;9.53;;;9.00;99.90;;;;;;5126201;27;20192;-69
2021/10/18 05:58:21;;;;;;;10.70;6.97;;;9.00;99.90;;;;;;5129574;27;20540;-69
2021/10/18 06:00:48;;;;;;;9.03;6.40;;;9.00;99.90;;;;;;5132663;27;20657;-69
2021/10/18 06:03:15;;;;;;;7.93;4.80;;;8.90;99.90;;;;;;5119703;27;20209;-69
2021/10/18 06:05:44;;;;;;;8.20;4.33;;;8.90;99.90;;;;;;5122039;27;20197;-69
2021/10/18 06:08:12;;;;;;;6.97;4.83;;;8.90;99.90;;;;;;5120714;27;20212;-69
2021/10/18 06:10:39;;;;;;;9.10;4.70;;;8.80;99.90;;;;;;5127278;27;20216;-69
2021/10/18 06:13:08;;;;;;;8.07;4.47;;;8.80;99.90;;;;;;5128961;27;20204;-69
2021/10/18 06:15:36;;;;;;;8.60;4.40;;;8.70;99.90;;;;;;5120793;27;20193;-69
2021/10/18 06:18:13;;;;;;;6.50;4.53;;;8.60;99.90;;;;;;5116199;27;20204;-69
2021/10/18 06:20:41;;;;;;;10.47;4.57;;;8.40;99.90;;;;;;5115653;27;20546;-69
2021/10/18 06:23:08;;;;;;;9.63;4.93;;;8.30;99.90;;;;;;5120607;27;20197;-69
2021/10/18 06:25:36;;;;;;;10.27;4.50;;;8.30;99.90;;;;;;5121727;27;20216;-69
2021/10/18 06:28:04;;;;;;;8.53;4.97;;;8.30;99.90;;;;;;5130270;27;20215;-69
2021/10/18 06:30:32;;;;;;;7.13;4.50;;;8.20;99.90;;;;;;5133733;27;20587;-69
2021/10/18 06:32:59;;;;;;;7.60;5.03;;;8.10;99.90;;;;;;5135374;27;20204;-69
2021/10/18 06:35:26;;;;;;;6.43;4.60;;;8.20;99.90;;;;;;5134676;27;20291;-69
2021/10/18 06:37:53;;;;;;;8.53;4.80;;;8.20;99.90;;;;;;5134272;27;20300;-76
2021/10/18 06:40:20;;;;;;;6.40;4.07;;;8.20;99.90;;;;;;5133493;27;20200;-76
2021/10/18 06:42:47;;;;;;;8.40;4.83;;;8.10;99.90;;;;;;5134537;27;20220;-75
2021/10/18 06:45:14;;;;;;;8.43;4.87;;;8.10;99.90;;;;;;5134657;27;20211;-76
2021/10/18 06:47:43;;;;;;;8.30;5.20;;;8.00;99.90;;;;;;5133830;27;20208;-75
2021/10/18 06:50:10;;;;;;;8.20;4.80;;;8.00;99.90;;;;;;5134578;27;20657;-76
2021/10/18 06:52:39;;;;;;;6.30;4.70;;;8.00;99.90;;;;;;5133904;27;20208;-76
2021/10/18 06:55:08;;;;;;;7.00;4.60;;;8.10;99.90;;;;;;5134574;27;20666;-76
2021/10/18 06:57:36;;;;;;;10.47;4.73;;;8.10;99.90;;;;;;5134854;27;20241;-76
2021/10/18 07:00:04;;;;;;;5.17;4.30;;;7.90;99.90;;;;;;5132665;27;20212;-76
2021/10/18 07:02:31;;;;;;;7.77;4.60;;;7.90;99.90;;;;;;5134481;27;20562;-76
2021/10/18 07:04:59;;;;;;;6.60;4.57;;;7.90;99.90;;;;;;5134891;27;20200;-76
2021/10/18 07:07:27;;;;;;;8.70;4.77;;;8.00;99.90;;;;;;5134291;27;20212;-75
2021/10/18 07:09:59;;;;;;;8.43;4.77;;;8.10;99.90;;;;;;5133392;27;20255;-75
2021/10/18 07:12:27;;;;;;;7.13;4.90;;;8.20;99.90;;;;;;5133213;27;20200;-75
2021/10/18 07:14:55;;;;;;;8.47;4.73;;;8.30;99.90;;;;;;5134633;27;20604;-75
2021/10/18 07:17:22;;;;;;;9.27;4.40;;;8.30;99.90;;;;;;5133856;27;20207;-75
2021/10/18 07:19:49;;;;;;;8.37;4.33;;;9.70;99.90;;;;;;5133023;27;20196;-76
2021/10/18 07:22:18;;;;;;;13.50;4.60;;;9.90;99.90;;;;;;5134134;27;20207;-75
2021/10/18 07:24:45;;;;;;;6.33;4.33;;;9.50;99.90;;;;;;5126997;27;20296;-75
2021/10/18 07:27:12;;;;;;;6.80;3.80;;;9.30;99.90;;;;;;5113727;28;20236;-76
2021/10/18 07:29:39;;;;;;;7.03;4.13;;;9.20;99.90;;;;;;5112218;28;20845;-75
2021/10/18 07:32:06;;;;;;;6.70;4.23;;;9.10;99.90;;;;;;5113672;27;20651;-76
2021/10/18 07:34:33;;;;;;;6.87;4.00;;;9.80;99.90;;;;;;5113819;28;20568;-75
2021/10/18 07:37:01;;;;;;;8.03;4.33;;;9.80;99.90;;;;;;5113343;28;20254;-75
2021/10/18 07:39:29;;;;;;;6.63;4.63;;;10.00;99.90;;;;;;5113400;27;20197;-76
2021/10/18 07:41:57;;;;;;;6.27;4.23;;;10.10;99.90;;;;;;5121493;27;20204;-75
2021/10/18 07:44:25;;;;;;;5.90;3.50;;;10.20;99.90;;;;;;5118422;27;20197;-75
2021/10/18 07:46:52;;;;;;;8.83;3.87;;;10.10;99.90;;;;;;5127928;27;20257;-75
2021/10/18 07:49:20;;;;;;;7.10;3.80;;;10.00;99.90;;;;;;5124199;27;20477;-75
2021/10/18 07:51:46;;;;;;;7.23;3.90;;;9.90;99.90;;;;;;5130328;27;20650;-75
2021/10/18 07:54:13;;;;;;;5.70;3.80;;;9.90;99.90;;;;;;5120242;27;20219;-75
2021/10/18 07:56:42;;;;;;;6.83;4.47;;;9.90;99.90;;;;;;5113361;28;20205;-75
2021/10/18 07:59:08;;;;;;;7.27;4.27;;;10.00;99.90;;;;;;5110752;28;20204;-75
2021/10/18 08:01:35;;;;;;;6.20;3.73;;;9.90;99.90;;;;;;5119001;27;20200;-75
2021/10/18 08:04:02;;;;;;;11.20;6.90;;;10.00;99.90;;;;;;5133274;27;20197;-75
2021/10/18 08:06:29;;;;;;;8.60;4.47;;;9.90;99.90;;;;;;5132915;27;20212;-75
2021/10/18 08:08:56;;;;;;;5.57;4.20;;;10.10;99.90;;;;;;5130962;27;20197;-75
2021/10/18 08:11:23;;;;;;;6.83;4.00;;;10.40;99.90;;;;;;5131995;27;20224;-75
2021/10/18 08:13:51;;;;;;;8.30;4.00;;;10.90;99.90;;;;;;5115521;27;20295;-74
2021/10/18 08:16:18;;;;;;;6.17;3.73;;;10.90;99.90;;;;;;5112711;28;20211;-75
2021/10/18 08:18:45;;;;;;;6.63;4.27;;;11.00;99.90;;;;;;5111747;28;20569;-75
2021/10/18 08:21:13;;;;;;;8.00;4.50;;;11.00;99.90;;;;;;5112828;27;20204;-75
2021/10/18 08:23:41;;;;;;;6.53;3.90;;;11.00;99.90;;;;;;5112800;27;20216;-75
2021/10/18 08:26:08;;;;;;;6.43;3.77;;;11.00;99.90;;;;;;5112576;28;20197;-75
2021/10/18 08:28:35;;;;;;;5.17;3.93;;;11.20;99.90;;;;;;5111775;28;20208;-75
2021/10/18 08:31:03;;;;;;;12.07;3.67;;;11.30;99.90;;;;;;5111096;28;20240;-76
2021/10/18 08:33:30;;;;;;;7.03;3.57;;;11.40;99.90;;;;;;5111851;28;20205;-76
2021/10/18 08:35:57;;;;;;;5.87;3.60;;;11.40;99.90;;;;;;5112466;28;20674;-75
2021/10/18 08:41:12;;;;;;;6.40;3.70;;;11.80;99.90;;;;;;5112259;28;20669;-75
2021/10/18 08:46:26;;;;;;;6.00;3.63;;;11.80;99.90;;;;;;5111572;28;20665;-77
2021/10/18 08:48:57;;;;;;;6.40;3.20;;;11.80;99.90;;;;;;5111740;28;20212;-77
2021/10/18 08:51:26;;;;;;;5.93;3.70;;;11.90;99.90;;;;;;5127236;27;20235;-77
2021/10/18 08:53:53;;;;;;;6.97;4.10;;;11.90;99.90;;;;;;5128090;27;20299;-76
2021/10/18 08:56:21;;;;;;;6.20;3.33;;;11.90;99.90;;;;;;5115562;27;20192;-76
2021/10/18 08:58:48;;;;;;;4.87;3.33;;;12.00;99.90;;;;;;5130637;27;20208;-77
2021/10/18 09:01:15;;;;;;;5.57;3.73;;;12.00;99.90;;;;;;5131665;27;20216;-76
2021/10/18 09:03:44;;;;;;;6.00;3.57;;;12.00;99.90;;;;;;5131949;27;20650;-77
2021/10/18 09:06:14;;;;;;;6.00;3.57;;;12.00;99.90;;;;;;5131365;27;20196;-77
2021/10/18 09:08:42;;;;;;;7.30;3.87;;;12.20;99.90;;;;;;5125269;27;20193;-77
2021/10/18 09:11:12;;;;;;;5.97;3.80;;;12.30;99.90;;;;;;5124232;28;20394;-79
2021/10/18 09:13:45;;;;;;;9.10;3.53;;;12.40;99.90;;;;;;5125975;27;20209;-77
2021/10/18 09:16:22;;;;;;;6.37;3.60;;;12.40;99.90;;;;;;5110792;28;20200;-76
2021/10/18 09:18:58;;;;;;;5.57;3.27;;;12.50;99.90;;;;;;5110099;28;20204;-73
2021/10/18 09:21:28;;;;;;;8.73;3.80;;;12.60;99.90;;;;;;5110715;28;20674;-71
2021/10/18 09:23:55;;;;;;;4.13;3.13;;;12.70;99.90;;;;;;5112073;28;20205;-73
2021/10/18 09:26:24;;;;;;;4.50;3.10;;;12.70;99.90;;;;;;5111087;28;20292;-73
2021/10/18 09:28:54;;;;;;;6.20;3.20;;;12.80;99.90;;;;;;5110382;28;20643;-73
2021/10/18 09:31:21;;;;;;;3.63;3.27;;;12.90;99.90;;;;;;5112029;28;20239;-73
2021/10/18 09:33:54;;;;;;;5.07;3.50;;;12.90;99.90;;;;;;5111033;28;20211;-73
2021/10/18 09:36:29;;;;;;;7.83;3.70;;;13.00;99.90;;;;;;5112214;28;20208;-73
2021/10/18 09:39:14;;;;;;;3.57;3.00;;;13.10;99.90;;;;;;5116023;28;20672;-73
2021/10/18 09:41:44;;;;;;;5.37;3.30;;;13.00;99.90;;;;;;5132169;28;20203;-73
2021/10/18 09:44:29;;;;;;;7.03;3.50;;;13.20;99.90;;;;;;5131092;28;20212;-72
2021/10/18 10:51:13;;;;;;;5.50;3.03;;;15.80;99.90;;;;;;5126690;27;20325;-69
2021/10/18 10:53:51;;;;;;;3.80;2.80;;;16.00;99.90;;;;;;5134609;27;20617;-69
2021/10/18 10:56:24;;;;;;;3.00;2.50;;;16.30;99.60;;;;;;5130591;27;20222;-69
2021/10/18 10:59:00;;;;;;;6.53;2.73;;;16.50;99.40;;;;;;5129109;27;20265;-69
2021/10/18 11:01:48;;;;;;;5.40;3.10;;;16.40;98.70;;;;;;5134793;27;20202;-69
2021/10/18 11:04:46;;;;;;;4.17;2.50;;;16.30;97.90;;;;;;5134027;27;20200;-69
2021/10/18 11:07:20;;;;;;;6.22;2.53;;;16.40;97.70;;;;;;5134280;27;20277;-69
2021/10/18 11:09:49;;;;;;;5.03;2.70;;;16.20;99.20;;;;;;5134262;27;20207;-69
2021/10/18 11:12:25;;;;;;;5.37;2.43;;;16.00;98.10;;;;;;5134656;27;20491;-69
2021/10/18 11:14:56;;;;;;;4.70;2.83;;;16.40;98.20;;;;;;5134927;27;20200;-69
2021/10/18 11:17:23;;;;;;;4.07;2.60;;;16.50;99.40;;;;;;5134512;27;20546;-69
2021/10/18 11:19:55;;;;;;;4.10;2.55;;;16.50;97.70;;;;;;5134031;27;20200;-69
2021/10/18 11:22:30;;;;;;;4.13;2.40;;;16.40;98.60;;;;;;5134765;27;20192;-69
2021/10/18 11:24:57;;;;;;;2.90;2.53;;;16.20;98.70;;;;;;5134862;27;20707;-69
2021/10/18 11:27:30;;;;;;;4.28;2.90;;;16.40;97.60;;;;;;5134110;27;20233;-69
2021/10/18 11:30:00;;;;;;;4.33;2.63;;;16.50;97.70;;;;;;5134003;27;20863;-69
2021/10/18 11:32:27;;;;;;;5.60;2.70;;;16.30;98.00;;;;;;5134064;27;20591;-69
2021/10/18 11:35:09;;;;;;;5.22;2.92;;;16.40;97.70;;;;;;5134752;27;20253;-69
2021/10/18 11:38:00;;;;;;;3.97;2.50;;;16.30;98.10;;;;;;5134276;27;20208;-69
2021/10/18 11:40:31;;;;;;;4.95;2.95;;;16.40;98.60;;;;;;5133731;27;20204;-69
2021/10/18 11:43:00;;;;;;;4.53;2.75;;;16.40;97.60;;;;;;5129737;27;20200;-69
2021/10/18 11:45:31;;;;;;;3.95;2.60;;;16.30;98.10;;;;;;5134177;27;20570;-69
2021/10/18 11:48:09;;;;;;;4.15;2.78;;;16.50;97.80;;;;;;5133970;27;20252;-69
2021/10/18 11:50:40;;;;;;;4.32;2.47;;;16.90;98.20;;;;;;5133436;27;20318;-69
2021/10/18 11:53:12;;;;;;;4.15;2.60;;;17.00;97.40;;;;;;5133721;27;20299;-69
2021/10/18 11:55:40;;;;;;;3.28;2.72;;;17.20;98.20;;;;;;5134003;27;20196;-70
2021/10/18 11:58:08;;;;;;;3.95;2.67;;;16.90;96.60;;;;;;5134094;27;20196;-69
2021/10/18 12:00:42;;;;;;;3.20;2.50;;;16.70;97.00;;;;;;5133185;27;20208;-69
2021/10/18 12:03:11;;;;;;;3.70;2.60;;;16.90;97.50;;;;;;5134348;27;20208;-69
2021/10/18 12:05:40;;;;;;;3.75;2.80;;;17.10;97.60;;;;;;5133490;27;20207;-69
2021/10/18 12:08:08;;;;;;;5.22;2.60;;;16.90;97.30;;;;;;5133746;27;20207;-70
2021/10/18 12:10:36;;;;;;;3.92;2.40;;;16.70;97.80;;;;;;5132559;27;20200;-69
2021/10/18 12:13:09;;;;;;;3.88;2.50;;;16.80;98.30;;;;;;5133674;27;20208;-70
2021/10/18 12:15:44;;;;;;;2.78;2.58;;;17.00;97.20;;;;;;5133383;27;20662;-69
2021/10/18 12:18:12;;;;;;;5.10;2.70;;;17.10;97.30;;;;;;5133418;27;20206;-69
2021/10/18 12:20:42;;;;;;;4.05;2.42;;;17.00;97.10;;;;;;5133032;27;20222;-69
2021/10/18 12:23:16;;;;;;;4.03;2.45;;;17.00;97.50;;;;;;5133639;27;20204;-69
2021/10/18 12:25:57;;;;;;;3.28;2.25;;;17.10;96.80;;;;;;5128753;27;20212;-69
2021/10/18 12:28:25;;;;;;;2.85;2.35;;;17.10;97.30;;;;;;5124959;27;20204;-69
2021/10/18 12:30:54;;;;;;;5.90;2.72;;;16.90;96.40;;;;;;5116458;27;20633;-69
2021/10/18 12:33:21;;;;;;;4.63;2.55;;;16.70;97.80;;;;;;5122639;27;20569;-69
2021/10/18 12:35:58;;;;;;;4.65;2.60;;;17.10;97.40;;;;;;5121156;27;20639;-69
2021/10/18 12:38:27;;;;;;;2.78;2.30;;;17.20;97.10;;;;;;5118683;27;20207;-69
2021/10/18 12:41:07;;;;;;;3.47;2.70;;;17.00;98.60;;;;;;5129409;27;20332;-69
2021/10/18 12:43:34;;;;;;;2.85;2.33;;;16.90;98.10;;;;;;5131638;27;20215;-69
2021/10/18 12:46:26;;;;;;;3.90;2.88;;;16.60;98.30;;;;;;5132680;27;20207;-69
2021/10/18 12:49:01;;;;;;;4.40;2.80;;;16.30;99.80;;;;;;5117441;27;20254;-69
2021/10/18 12:51:41;;;;;;;2.53;2.15;;;16.00;99.10;;;;;;5129465;27;20646;-72
2021/10/18 12:54:25;;;;;;;4.18;3.25;;;16.00;99.80;;;;;;5118105;27;20245;-73
2021/10/18 12:57:00;;;;;;;4.90;2.80;;;16.20;99.90;;;;;;5122992;27;20215;-72
2021/10/18 12:59:27;;;;;;;4.72;3.47;;;16.20;99.90;;;;;;5116455;27;20224;-72
2021/10/18 13:02:31;;;;;;;5.70;2.85;;;16.10;99.60;;;;;;5123193;27;20184;-72
2021/10/18 13:05:15;;;;;;;3.88;2.83;;;15.90;99.90;;;;;;5113668;27;20218;-73
2021/10/18 13:07:50;;;;;;;4.90;2.70;;;16.10;99.60;;;;;;5124031;27;20784;-73
2021/10/18 13:10:17;;;;;;;3.40;2.72;;;16.10;99.60;;;;;;5111369;28;20200;-72
2021/10/18 13:12:45;;;;;;;6.37;3.20;;;16.10;99.90;;;;;;5130180;28;20224;-72
2021/10/18 13:15:14;;;;;;;5.33;2.70;;;16.10;99.40;;;;;;5131548;28;20727;-72
2021/10/18 13:17:42;;;;;;;3.30;2.60;;;16.10;99.90;;;;;;5128964;28;20196;-72
2021/10/18 13:20:14;;;;;;;4.35;2.78;;;16.20;99.90;;;;;;5129398;28;20196;-72
2021/10/18 13:22:41;;;;;;;4.75;2.80;;;16.30;99.90;;;;;;5131260;28;20201;-72
2021/10/18 13:25:08;;;;;;;6.13;2.70;;;16.60;99.90;;;;;;5111676;28;20204;-72
2021/10/18 13:27:36;;;;;;;3.50;2.70;;;16.40;99.10;;;;;;5125124;28;20219;-73
2021/10/18 13:30:04;;;;;;;4.30;2.42;;;16.30;98.90;;;;;;5131111;28;20654;-72
2021/10/18 13:32:31;;;;;;;5.07;2.45;;;16.20;99.10;;;;;;5128291;28;20220;-72
2021/10/18 13:34:58;;;;;;;4.55;2.80;;;16.00;99.30;;;;;;5132129;28;20207;-73
2021/10/18 13:37:26;;;;;;;4.63;2.80;;;16.00;99.20;;;;;;5127857;27;20230;-73
2021/10/18 13:39:54;;;;;;;4.65;3.00;;;16.20;99.80;;;;;;5132404;28;20200;-73
2021/10/18 13:42:22;;;;;;;3.90;2.60;;;16.10;98.80;;;;;;5130766;27;20617;-72
2021/10/18 13:44:49;;;;;;;4.00;2.97;;;15.90;99.60;;;;;;5129453;28;20227;-72
2021/10/18 13:47:16;;;;;;;5.72;2.58;;;15.90;99.70;;;;;;5122351;28;20205;-73
2021/10/18 13:49:43;;;;;;;3.35;2.33;;;16.00;99.90;;;;;;5108480;28;20204;-72
2021/10/18 13:52:10;;;;;;;4.17;3.00;;;15.90;99.80;;;;;;5119674;27;20210;-72
2021/10/18 13:54:38;;;;;;;5.30;2.80;;;15.70;98.70;;;;;;5127673;27;20212;-72
2021/10/18 13:57:05;;;;;;;5.30;2.65;;;15.80;99.60;;;;;;5133542;27;20676;-72
2021/10/18 13:59:34;;;;;;;3.63;2.43;;;15.90;99.60;;;;;;5132009;27;20212;-72
2021/10/18 14:02:02;;;;;;;5.63;3.00;;;15.70;99.90;;;;;;5119412;27;20609;-72
2021/10/18 14:04:28;;;;;;;3.72;2.42;;;15.80;99.90;;;;;;5112484;27;20212;-72
2021/10/18 14:06:56;;;;;;;3.00;2.30;;;15.70;99.90;;;;;;5112664;28;20671;-72
2021/10/18 14:09:22;;;;;;;3.75;2.50;;;15.60;99.30;;;;;;5125358;27;20215;-72
2021/10/18 14:11:51;;;;;;;3.53;2.60;;;15.60;99.90;;;;;;5132671;27;20230;-72